createdAt,value
2023-05-19T00:00:47.835Z,11.64
2023-05-19T00:03:34.196Z,11.82
2023-05-19T00:06:21.710Z,11.33
2023-05-19T00:09:08.795Z,11.28
2023-05-19T00:11:53.187Z,11.23
2023-05-19T00:14:37.669Z,11.48
2023-05-19T00:17:22.117Z,11.30
2023-05-19T00:20:09.074Z,11.31
2023-05-19T00:22:54.413Z,11.24
2023-05-19T00:25:38.947Z,11.41
2023-05-19T00:28:23.609Z,11.05
2023-05-19T00:31:08.080Z,11.03
2023-05-19T00:33:52.901Z,11.28
2023-05-19T00:36:40.568Z,11.00
2023-05-19T00:39:25.294Z,11.09
2023-05-19T00:42:10.669Z,11.00
2023-05-19T00:44:55.764Z,11.14
2023-05-19T00:47:40.353Z,11.24
2023-05-19T00:50:28.172Z,10.96
2023-05-19T00:53:15.567Z,11.06
2023-05-19T00:56:05.942Z,11.19
2023-05-19T00:58:58.811Z,10.93
2023-05-19T01:01:47.074Z,10.60
2023-05-19T01:31:13.891Z,10.58
2023-05-19T01:43:33.080Z,10.36
2023-05-19T01:47:31.860Z,10.37
2023-05-19T01:51:48.516Z,10.28
2023-05-19T02:13:21.343Z,10.53
2023-05-19T03:22:30.024Z,9.86
2023-05-19T03:25:13.642Z,9.70
2023-05-19T03:27:57.880Z,10.00
2023-05-19T03:30:41.605Z,10.10
2023-05-19T03:36:40.052Z,10.26
2023-05-19T03:39:28.863Z,9.81
2023-05-19T03:42:12.467Z,10.19
2023-05-19T03:44:56.039Z,10.24
2023-05-19T03:47:39.704Z,10.30
2023-05-19T03:50:46.334Z,10.05
2023-05-19T03:53:38.315Z,9.99
2023-05-19T03:56:25.202Z,9.96
2023-05-19T03:59:10.971Z,10.21
2023-05-19T04:01:54.732Z,10.16
2023-05-19T04:04:38.503Z,9.64
2023-05-19T04:07:22.157Z,10.07
2023-05-19T04:10:06.420Z,10.30
2023-05-19T04:12:50.209Z,9.80
2023-05-19T04:15:34.164Z,10.02
2023-05-19T04:18:17.738Z,9.63
2023-05-19T04:21:01.959Z,10.00
2023-05-19T04:23:45.495Z,10.29
2023-05-19T04:26:31.218Z,10.18
2023-05-19T04:29:18.162Z,10.01
2023-05-19T04:32:02.199Z,10.12
2023-05-19T04:34:46.356Z,10.15
2023-05-19T04:37:37.576Z,10.50
2023-05-19T04:40:23.953Z,10.54
2023-05-19T04:43:09.625Z,10.47
2023-05-19T04:45:53.610Z,10.37
2023-05-19T04:48:38.691Z,10.68
2023-05-19T04:51:22.335Z,10.72
2023-05-19T04:54:06.453Z,10.99
2023-05-19T04:56:50.213Z,11.08
2023-05-19T04:59:34.396Z,10.93
2023-05-19T05:02:21.261Z,11.28
2023-05-19T05:05:05.615Z,11.05
2023-05-19T05:07:49.729Z,11.16
2023-05-19T05:10:34.054Z,10.68
2023-05-19T05:13:21.987Z,10.86
2023-05-19T05:16:06.700Z,10.62
2023-05-19T05:18:50.840Z,10.71
2023-05-19T05:21:34.908Z,10.96
2023-05-19T05:24:18.778Z,11.14
2023-05-19T05:27:08.423Z,11.54
2023-05-19T05:29:53.086Z,11.59
2023-05-19T05:32:37.679Z,11.50
2023-05-19T05:35:27.786Z,11.48
2023-05-19T05:38:11.679Z,11.51
2023-05-19T05:40:56.004Z,10.96
2023-05-19T05:43:39.643Z,11.59
2023-05-19T05:46:23.350Z,11.91
2023-05-19T05:49:07.702Z,11.86
2023-05-19T05:52:05.056Z,11.96
2023-05-19T05:54:52.476Z,12.19
2023-05-19T05:57:37.176Z,12.22
2023-05-19T06:00:22.537Z,12.08
2023-05-19T06:05:54.919Z,12.21
2023-05-19T06:08:38.665Z,12.22
2023-05-19T06:11:22.559Z,12.22
2023-05-19T06:14:06.292Z,12.61
2023-05-19T06:17:18.872Z,12.77
2023-05-19T06:20:03.687Z,12.96
2023-05-19T06:22:47.302Z,12.59
2023-05-19T06:25:33.522Z,12.94
2023-05-19T06:28:18.116Z,13.23
2023-05-19T06:31:01.824Z,13.23
2023-05-19T06:34:05.837Z,13.31
2023-05-19T06:36:49.528Z,13.37
2023-05-19T06:39:35.265Z,12.87
2023-05-19T06:42:24.303Z,13.30
2023-05-19T06:45:28.151Z,13.66
2023-05-19T06:48:15.167Z,13.45
2023-05-19T06:50:58.813Z,13.94
2023-05-19T06:53:43.122Z,13.99
2023-05-19T06:56:26.812Z,13.79
2023-05-19T06:59:10.474Z,13.99
2023-05-19T07:01:55.220Z,13.99
2023-05-19T07:04:39.998Z,13.74
2023-05-19T07:07:24.266Z,13.60
2023-05-19T07:10:09.075Z,14.39
2023-05-19T07:12:52.763Z,14.57
2023-05-19T07:15:39.002Z,14.52
2023-05-19T07:18:23.418Z,14.52
2023-05-19T07:21:08.833Z,14.79
2023-05-19T07:23:53.724Z,15.14
2023-05-19T07:26:37.337Z,14.85
2023-05-19T07:29:21.028Z,15.19
2023-05-19T07:32:05.138Z,15.05
2023-05-19T07:34:48.692Z,15.43
2023-05-19T07:37:32.304Z,15.33
2023-05-19T07:40:16.062Z,15.81
2023-05-19T07:42:59.603Z,15.90
2023-05-19T07:45:43.222Z,15.89
2023-05-19T07:48:26.830Z,15.71
2023-05-19T07:51:11.568Z,15.70
2023-05-19T07:53:55.241Z,15.79
2023-05-19T07:56:38.878Z,15.96
2023-05-19T07:59:22.570Z,16.44
2023-05-19T08:02:06.584Z,16.63
2023-05-19T08:04:50.575Z,16.91
2023-05-19T08:07:34.280Z,17.27
2023-05-19T08:10:18.160Z,17.11
2023-05-19T08:13:02.140Z,16.69
2023-05-19T08:15:46.340Z,17.36
2023-05-19T08:18:30.241Z,17.82
2023-05-19T08:21:13.895Z,18.44
2023-05-19T08:23:57.756Z,18.13
2023-05-19T08:26:41.805Z,18.12
2023-05-19T08:29:25.407Z,18.68
2023-05-19T08:32:11.494Z,19.06
2023-05-19T08:34:56.984Z,18.46
2023-05-19T08:37:41.142Z,18.50
2023-05-19T08:40:27.491Z,18.50
2023-05-19T08:43:11.967Z,18.48
2023-05-19T08:45:56.041Z,17.99
2023-05-19T08:48:44.359Z,18.88
2023-05-19T08:51:47.340Z,19.42
2023-05-19T08:54:41.569Z,19.20
2023-05-19T08:57:25.981Z,18.40
2023-05-19T09:00:12.341Z,17.99
2023-05-19T09:03:10.735Z,18.47
2023-05-19T09:06:02.105Z,18.97
2023-05-19T09:08:47.263Z,17.99
2023-05-19T09:11:31.050Z,18.45
2023-05-19T09:14:14.733Z,17.60
2023-05-19T09:16:58.604Z,19.28
2023-05-19T09:19:48.319Z,19.91
2023-05-19T09:22:33.659Z,20.16
2023-05-19T09:25:23.832Z,20.37
2023-05-19T09:28:09.211Z,20.14
2023-05-19T09:31:10.155Z,19.12
2023-05-19T09:33:54.009Z,20.40
2023-05-19T09:36:41.611Z,19.95
2023-05-19T09:39:26.081Z,20.44
2023-05-19T09:42:09.719Z,20.02
2023-05-19T09:45:05.113Z,20.14
2023-05-19T09:47:49.219Z,20.28
2023-05-19T09:50:34.030Z,20.37
2023-05-19T09:53:18.708Z,20.60
2023-05-19T09:56:03.802Z,21.06
2023-05-19T09:58:49.310Z,21.54
2023-05-19T10:01:33.926Z,21.70
2023-05-19T10:04:18.507Z,22.04
2023-05-19T10:07:06.274Z,21.85
2023-05-19T10:09:51.849Z,20.95
2023-05-19T10:12:37.620Z,20.21
2023-05-19T10:15:23.336Z,21.28
2023-05-19T10:18:09.353Z,22.23
2023-05-19T10:20:54.354Z,21.49
2023-05-19T10:23:38.603Z,21.40
2023-05-19T10:26:26.285Z,21.90
2023-05-19T10:29:12.770Z,21.68
2023-05-19T10:32:06.882Z,21.78
2023-05-19T10:35:12.043Z,21.26
2023-05-19T10:38:27.756Z,21.24
2023-05-19T10:42:00.466Z,21.72
2023-05-19T10:45:20.164Z,22.12
2023-05-19T10:48:04.186Z,21.52
2023-05-19T10:50:48.989Z,20.80
2023-05-19T10:53:34.610Z,21.35
2023-05-19T10:56:36.318Z,21.64
2023-05-19T10:59:37.967Z,21.72
2023-05-19T11:02:42.730Z,21.79
2023-05-19T11:05:32.524Z,21.78
2023-05-19T11:08:18.055Z,21.95
2023-05-19T11:11:17.863Z,22.49
2023-05-19T11:14:01.907Z,22.16
2023-05-19T11:16:51.115Z,21.76
2023-05-19T11:19:36.364Z,21.71
2023-05-19T11:22:27.058Z,21.42
2023-05-19T11:25:10.894Z,21.14
2023-05-19T11:27:55.586Z,21.32
2023-05-19T11:30:42.611Z,21.30
2023-05-19T11:33:30.176Z,21.27
2023-05-19T11:36:16.795Z,21.31
2023-05-19T11:39:02.636Z,21.36
2023-05-19T11:41:46.295Z,20.94
2023-05-19T11:44:29.852Z,21.39
2023-05-19T11:47:15.046Z,20.92
2023-05-19T11:49:59.073Z,21.63
2023-05-19T11:52:47.739Z,21.85
2023-05-19T11:55:31.398Z,22.53
2023-05-19T11:58:15.980Z,21.50
2023-05-19T12:01:05.025Z,21.15
2023-05-19T12:03:49.894Z,20.56
2023-05-19T12:06:34.581Z,20.60
2023-05-19T12:09:22.400Z,20.66
2023-05-19T12:12:06.367Z,20.99
2023-05-19T12:14:53.509Z,21.23
2023-05-19T12:17:37.504Z,21.46
2023-05-19T12:20:21.272Z,21.46
2023-05-19T12:23:05.343Z,22.13
2023-05-19T12:25:49.960Z,22.74
2023-05-19T12:28:33.614Z,22.06
2023-05-19T12:31:18.231Z,22.44
2023-05-19T12:34:02.336Z,21.30
2023-05-19T12:36:46.860Z,21.17
2023-05-19T12:39:30.791Z,20.95
2023-05-19T12:42:16.732Z,21.37
2023-05-19T12:45:04.770Z,21.42
2023-05-19T12:47:50.625Z,20.08
2023-05-19T12:50:34.996Z,21.33
2023-05-19T12:53:18.982Z,22.65
2023-05-19T12:56:10.147Z,23.13
2023-05-19T12:58:55.550Z,23.77
2023-05-19T13:01:39.227Z,23.22
2023-05-19T13:04:22.899Z,22.29
2023-05-19T13:07:06.524Z,22.00
2023-05-19T13:09:50.196Z,22.14
2023-05-19T13:12:33.860Z,22.20
2023-05-19T13:15:17.563Z,21.72
2023-05-19T13:18:06.419Z,21.19
2023-05-19T13:20:51.598Z,21.55
2023-05-19T13:23:35.542Z,21.60
2023-05-19T13:26:19.496Z,21.88
2023-05-19T13:29:03.267Z,21.85
2023-05-19T13:31:47.027Z,22.92
2023-05-19T13:34:30.761Z,22.64
2023-05-19T13:37:14.662Z,22.40
2023-05-19T13:40:00.880Z,22.46
2023-05-19T13:42:45.364Z,21.87
2023-05-19T13:45:29.310Z,22.17
2023-05-19T13:48:13.390Z,21.98
2023-05-19T13:50:56.992Z,22.21
2023-05-19T13:53:41.408Z,22.53
2023-05-19T13:56:24.991Z,22.34
2023-05-19T13:59:08.750Z,21.76
2023-05-19T14:01:52.491Z,22.34
2023-05-19T14:04:40.431Z,22.51
2023-05-19T14:07:24.352Z,22.68
2023-05-19T14:10:08.708Z,22.66
2023-05-19T14:15:42.228Z,21.14
2023-05-19T14:18:26.743Z,21.43
2023-05-19T14:21:10.463Z,21.40
2023-05-19T14:23:54.059Z,21.85
2023-05-19T14:26:37.668Z,21.86
2023-05-19T14:29:21.308Z,22.37
2023-05-19T14:32:06.106Z,22.81
2023-05-19T14:34:53.095Z,22.55
2023-05-19T14:37:36.843Z,22.69
2023-05-19T14:40:20.454Z,22.72
2023-05-19T14:43:04.287Z,22.16
2023-05-19T14:45:47.925Z,22.49
2023-05-19T14:48:32.176Z,22.74
2023-05-19T14:51:15.790Z,23.07
2023-05-19T14:54:00.396Z,22.63
2023-05-19T14:56:44.036Z,21.25
2023-05-19T14:59:28.133Z,21.98
2023-05-19T15:02:14.340Z,21.39
2023-05-19T15:04:57.990Z,22.24
2023-05-19T15:07:41.678Z,22.86
2023-05-19T15:10:25.402Z,22.85
2023-05-19T15:13:09.064Z,22.20
2023-05-19T15:16:30.397Z,23.02
2023-05-19T15:19:14.080Z,23.07
2023-05-19T15:21:57.810Z,22.22
2023-05-19T15:24:41.541Z,21.79
2023-05-19T15:27:25.205Z,21.68
2023-05-19T15:30:09.152Z,21.43
2023-05-19T15:32:52.910Z,21.28
2023-05-19T15:35:36.557Z,21.45
2023-05-19T15:38:20.617Z,21.13
2023-05-19T15:41:08.886Z,21.20
2023-05-19T15:43:53.752Z,21.00
2023-05-19T15:46:37.366Z,20.76
2023-05-19T15:49:20.998Z,20.77
2023-05-19T15:52:04.927Z,20.47
2023-05-19T15:54:48.966Z,20.87
2023-05-19T15:57:32.580Z,20.80
2023-05-19T16:00:16.517Z,20.98
2023-05-19T16:03:00.244Z,21.13
2023-05-19T16:05:43.922Z,20.76
2023-05-19T16:08:27.828Z,20.57
2023-05-19T16:11:11.570Z,20.27
2023-05-19T16:13:55.209Z,19.61
2023-05-19T16:16:38.850Z,19.47
2023-05-19T16:19:24.032Z,19.95
2023-05-19T16:22:07.725Z,20.47
2023-05-19T16:24:52.405Z,20.60
2023-05-19T16:27:35.953Z,20.23
2023-05-19T16:30:19.491Z,20.72
2023-05-19T16:33:03.196Z,20.29
2023-05-19T16:35:46.848Z,20.62
2023-05-19T16:38:30.671Z,20.67
2023-05-19T16:41:14.334Z,19.82
2023-05-19T16:43:57.912Z,20.05
2023-05-19T16:46:41.492Z,20.20
2023-05-19T16:49:25.078Z,19.86
2023-05-19T16:52:08.675Z,19.16
2023-05-19T16:54:52.670Z,19.71
2023-05-19T16:57:36.344Z,19.79
2023-05-19T17:00:20.101Z,20.25
2023-05-19T17:03:04.942Z,20.55
2023-05-19T17:05:48.702Z,20.61
2023-05-19T17:08:32.437Z,20.43
2023-05-19T17:11:16.052Z,20.36
2023-05-19T17:13:59.631Z,20.51
2023-05-19T17:16:43.308Z,20.24
2023-05-19T17:19:27.202Z,20.17
2023-05-19T17:22:10.931Z,19.72
2023-05-19T17:24:54.490Z,19.79
2023-05-19T17:27:38.181Z,19.56
2023-05-19T17:30:21.777Z,19.86
2023-05-19T17:33:05.831Z,19.43
2023-05-19T17:35:49.452Z,19.06
2023-05-19T17:38:33.096Z,18.95
2023-05-19T17:41:16.921Z,19.11
2023-05-19T17:44:00.845Z,19.10
2023-05-19T17:46:44.542Z,18.97
2023-05-19T17:49:28.195Z,18.90
2023-05-19T17:52:12.129Z,18.57
2023-05-19T17:54:56.233Z,18.77
2023-05-19T17:57:43.750Z,18.62
2023-05-19T18:00:27.660Z,18.73
2023-05-19T18:03:12.000Z,18.13
2023-05-19T18:05:56.076Z,18.48
2023-05-19T18:08:42.669Z,18.60
2023-05-19T18:11:26.671Z,18.07
2023-05-19T18:14:10.761Z,18.27
2023-05-19T18:16:54.399Z,18.53
2023-05-19T18:19:38.175Z,17.87
2023-05-19T18:22:22.208Z,18.14
2023-05-19T18:25:06.838Z,18.00
2023-05-19T18:27:50.493Z,18.04
2023-05-19T18:30:34.437Z,18.27
2023-05-19T18:33:18.445Z,18.21
2023-05-19T18:36:02.319Z,18.46
2023-05-19T18:38:47.555Z,17.77
2023-05-19T18:41:32.115Z,18.04
2023-05-19T18:44:15.695Z,17.66
2023-05-19T18:46:59.818Z,17.57
2023-05-19T18:49:43.408Z,17.69
2023-05-19T18:52:28.846Z,17.99
2023-05-19T18:55:12.451Z,17.92
2023-05-19T18:57:56.158Z,17.57
2023-05-19T19:00:39.745Z,17.65
2023-05-19T19:03:23.550Z,17.42
2023-05-19T19:06:07.243Z,17.46
2023-05-19T19:08:51.359Z,17.20
2023-05-19T19:11:34.962Z,17.30
2023-05-19T19:14:19.522Z,17.46
2023-05-19T19:17:03.128Z,16.71
2023-05-19T19:19:49.531Z,17.10
2023-05-19T19:22:33.233Z,17.10
2023-05-19T19:25:17.214Z,17.04
2023-05-19T19:28:01.826Z,17.30
2023-05-19T19:30:46.359Z,17.13
2023-05-19T19:33:29.933Z,17.23
2023-05-19T19:36:13.672Z,17.35
2023-05-19T19:38:57.341Z,17.03
2023-05-19T19:41:41.200Z,17.04
2023-05-19T19:44:25.248Z,17.40
2023-05-19T19:47:08.796Z,17.25
2023-05-19T19:49:52.436Z,17.13
2023-05-19T19:52:36.141Z,16.69
2023-05-19T19:55:19.769Z,16.83
2023-05-19T19:58:03.408Z,16.85
2023-05-19T20:00:47.017Z,16.91
2023-05-19T20:03:31.848Z,16.81
2023-05-19T20:06:15.553Z,16.82
2023-05-19T20:08:59.878Z,16.63
2023-05-19T20:11:43.761Z,17.01
2023-05-19T20:14:27.429Z,17.14
2023-05-19T20:17:11.020Z,16.64
2023-05-19T20:19:54.705Z,16.65
2023-05-19T20:22:39.351Z,16.54
2023-05-19T20:25:22.923Z,16.66
2023-05-19T20:28:06.759Z,16.48
2023-05-19T20:30:50.526Z,16.38
2023-05-19T20:33:34.459Z,16.29
2023-05-19T20:36:18.046Z,16.16
2023-05-19T20:39:01.617Z,16.15
2023-05-19T20:41:45.224Z,16.20
2023-05-19T20:44:28.879Z,16.21
2023-05-19T20:47:12.582Z,16.08
2023-05-19T20:49:56.114Z,16.49
2023-05-19T20:52:39.862Z,16.28
2023-05-19T20:55:23.437Z,16.47
2023-05-19T20:58:07.166Z,16.47
2023-05-19T21:00:57.065Z,16.50
2023-05-19T21:03:40.983Z,16.35
2023-05-19T21:06:24.589Z,16.16
2023-05-19T21:09:08.187Z,16.31
2023-05-19T21:11:54.936Z,16.25
2023-05-19T21:14:38.548Z,16.39
2023-05-19T21:17:22.294Z,16.28
2023-05-19T21:20:06.714Z,16.13
2023-05-19T21:22:50.270Z,16.12
2023-05-19T21:25:33.850Z,15.83
2023-05-19T21:28:17.437Z,15.75
2023-05-19T21:31:01.076Z,15.91
2023-05-19T21:33:44.814Z,15.85
2023-05-19T21:36:28.480Z,15.58
2023-05-19T21:39:12.054Z,15.60
2023-05-19T21:41:55.649Z,15.60
2023-05-19T21:44:39.198Z,15.54
2023-05-19T21:47:25.693Z,15.35
2023-05-19T21:50:11.119Z,15.57
2023-05-19T21:52:54.709Z,15.42
2023-05-19T21:55:39.383Z,15.35
2023-05-19T21:58:24.211Z,14.93
2023-05-19T22:01:08.306Z,15.20
2023-05-19T22:03:53.184Z,15.10
2023-05-19T22:06:36.817Z,15.04
2023-05-19T22:09:20.398Z,15.16
2023-05-19T22:12:04.141Z,14.82
2023-05-19T22:14:47.742Z,15.00
2023-05-19T22:17:31.874Z,14.77
2023-05-19T22:20:15.750Z,14.69
2023-05-19T22:23:01.280Z,14.49
2023-05-19T22:25:44.907Z,14.42
2023-05-19T22:28:30.643Z,14.34
2023-05-19T22:31:14.427Z,14.31
2023-05-19T22:33:58.210Z,14.61
2023-05-19T22:36:44.358Z,14.76
2023-05-19T22:39:27.976Z,14.56
2023-05-19T22:42:12.159Z,14.51
2023-05-19T22:44:55.915Z,14.56
2023-05-19T22:47:39.662Z,14.63
2023-05-19T22:50:23.441Z,14.64
2023-05-19T22:53:07.174Z,14.38
2023-05-19T22:55:51.153Z,14.43
2023-05-19T22:58:34.968Z,14.53
2023-05-19T23:01:18.933Z,14.53
2023-05-19T23:04:02.544Z,14.57
2023-05-19T23:06:47.314Z,14.52
2023-05-19T23:09:30.929Z,14.48
2023-05-19T23:12:14.609Z,14.37
2023-05-19T23:15:00.940Z,14.25
2023-05-19T23:17:44.643Z,14.16
2023-05-19T23:20:28.301Z,13.50
2023-05-19T23:23:11.877Z,14.12
2023-05-19T23:25:55.992Z,14.13
2023-05-19T23:28:42.010Z,14.14
2023-05-19T23:31:25.792Z,14.23
2023-05-19T23:34:09.482Z,13.84
2023-05-19T23:36:53.172Z,13.82
2023-05-19T23:39:38.449Z,14.01
2023-05-19T23:42:22.005Z,13.59
2023-05-19T23:45:06.349Z,13.68
2023-05-19T23:47:49.959Z,13.62
2023-05-19T23:50:33.709Z,13.70
2023-05-19T23:53:17.437Z,13.64
2023-05-19T23:56:00.966Z,13.82
2023-05-19T23:58:44.535Z,13.39
